createdAt,value
2023-02-13T00:01:52.471Z,73.55
2023-02-13T00:04:24.706Z,71.93
2023-02-13T00:06:59.872Z,62.42
2023-02-13T00:09:31.889Z,70.10
2023-02-13T00:12:04.129Z,57.03
2023-02-13T00:14:40.148Z,51.60
2023-02-13T00:17:13.375Z,46.42
2023-02-13T00:19:50.809Z,51.75
2023-02-13T00:22:25.908Z,49.70
2023-02-13T00:24:57.869Z,49.80
2023-02-13T00:27:30.173Z,40.58
2023-02-13T00:30:02.581Z,40.17
2023-02-13T00:32:34.853Z,38.22
2023-02-13T00:35:07.144Z,37.08
2023-02-13T00:37:42.132Z,31.55
2023-02-13T00:40:15.581Z,37.05
2023-02-13T00:42:48.062Z,27.85
2023-02-13T00:45:20.661Z,20.90
2023-02-13T00:47:53.000Z,20.50
2023-02-13T00:50:24.960Z,18.60
2023-02-13T00:53:00.010Z,18.90
2023-02-13T00:55:32.021Z,17.52
2023-02-13T00:58:28.030Z,15.80
2023-02-13T01:01:00.333Z,16.70
2023-02-13T01:03:33.128Z,14.10
2023-02-13T01:06:05.311Z,11.55
2023-02-13T01:08:42.773Z,10.50
2023-02-13T01:11:14.444Z,11.57
2023-02-13T01:13:46.492Z,12.85
2023-02-13T01:16:18.514Z,13.30
2023-02-13T01:18:50.431Z,9.48
2023-02-13T01:21:26.595Z,8.70
2023-02-13T01:24:01.248Z,10.32
2023-02-13T01:26:32.887Z,8.38
2023-02-13T01:29:04.815Z,8.63
2023-02-13T01:31:36.806Z,8.40
2023-02-13T01:34:08.910Z,8.50
2023-02-13T01:36:40.606Z,6.38
2023-02-13T01:39:16.685Z,7.35
2023-02-13T01:41:48.325Z,8.93
2023-02-13T01:44:49.986Z,8.13
2023-02-13T01:47:28.426Z,8.05
2023-02-13T01:50:09.444Z,11.15
2023-02-13T01:52:44.161Z,7.22
2023-02-13T01:55:19.964Z,9.20
2023-02-13T01:58:00.300Z,12.23
2023-02-13T02:00:32.741Z,14.50
2023-02-13T02:03:08.560Z,12.18
2023-02-13T02:05:40.659Z,12.43
2023-02-13T02:08:15.501Z,13.43
2023-02-13T02:10:50.302Z,10.27
2023-02-13T02:13:24.101Z,12.93
2023-02-13T02:15:56.156Z,12.80
2023-02-13T02:18:28.485Z,14.73
2023-02-13T02:21:44.706Z,12.73
2023-02-13T02:24:42.327Z,14.18
2023-02-13T02:27:49.653Z,16.08
2023-02-13T02:30:56.842Z,14.52
2023-02-13T02:33:43.627Z,14.15
2023-02-13T02:36:32.227Z,14.48
2023-02-13T02:39:11.826Z,15.65
2023-02-13T02:42:02.189Z,15.77
2023-02-13T02:44:46.737Z,17.58
2023-02-13T02:47:40.545Z,18.98
2023-02-13T02:50:42.073Z,16.92
2023-02-13T02:53:28.325Z,20.65
2023-02-13T02:56:09.227Z,21.77
2023-02-13T02:58:58.502Z,18.15
2023-02-13T03:01:45.296Z,19.48
2023-02-13T03:04:38.339Z,23.40
2023-02-13T04:26:26.313Z,31.92
2023-02-13T10:12:24.730Z,40.88
2023-02-13T10:15:11.519Z,42.10
2023-02-13T10:19:40.426Z,29.17
2023-02-13T10:22:14.793Z,27.38
2023-02-13T10:23:49.413Z,32.50
2023-02-13T10:33:23.492Z,21.52
2023-02-13T10:34:17.448Z,18.55
2023-02-13T10:37:18.355Z,19.27
2023-02-13T10:41:51.700Z,29.00
2023-02-13T10:44:49.301Z,27.80
2023-02-13T10:47:35.609Z,31.48
2023-02-13T10:50:19.074Z,28.70
2023-02-13T10:53:00.102Z,26.30
2023-02-13T10:55:58.526Z,30.20
2023-02-13T10:58:49.180Z,27.60
2023-02-13T11:01:31.621Z,33.08
2023-02-13T11:04:09.571Z,30.83
2023-02-13T11:06:46.506Z,29.95
2023-02-13T11:09:19.734Z,32.20
2023-02-13T11:11:55.092Z,32.47
2023-02-13T11:14:30.545Z,31.20
2023-02-13T11:17:05.572Z,28.17
2023-02-13T11:19:40.820Z,29.92
2023-02-13T11:22:16.507Z,31.17
2023-02-13T11:24:59.452Z,31.55
2023-02-13T11:27:35.960Z,32.85
2023-02-13T11:30:33.228Z,30.30
2023-02-13T11:33:08.524Z,33.03
2023-02-13T11:35:41.800Z,35.03
2023-02-13T11:38:26.932Z,31.25
2023-02-13T11:41:11.013Z,36.30
2023-02-13T11:43:51.929Z,33.42
2023-02-13T11:46:30.301Z,31.08
2023-02-13T11:49:06.544Z,36.35
2023-02-13T11:51:41.649Z,34.33
2023-02-13T11:54:36.273Z,35.80
2023-02-13T11:57:23.660Z,35.33
2023-02-13T11:59:57.285Z,39.97
2023-02-13T12:02:34.413Z,29.50
2023-02-13T12:05:21.680Z,36.13
2023-02-13T12:07:54.295Z,39.58
2023-02-13T12:10:29.236Z,32.35
2023-02-13T12:13:06.067Z,35.50
2023-02-13T12:15:40.322Z,39.13
2023-02-13T12:18:22.774Z,42.78
2023-02-13T12:21:06.308Z,43.22
2023-02-13T12:23:47.927Z,41.67
2023-02-13T12:26:33.282Z,40.83
2023-02-13T12:29:23.572Z,40.25
2023-02-13T12:32:14.132Z,41.25
2023-02-13T12:35:35.665Z,38.10
2023-02-13T12:38:19.847Z,40.35
2023-02-13T12:41:18.492Z,39.35
2023-02-13T12:44:25.492Z,38.25
2023-02-13T12:47:10.937Z,42.03
2023-02-13T12:50:13.618Z,38.38
2023-02-13T12:52:56.445Z,37.13
2023-02-13T12:56:10.332Z,37.08
2023-02-13T12:59:03.751Z,37.75
2023-02-13T13:01:59.706Z,35.00
2023-02-13T13:04:47.779Z,36.67
2023-02-13T13:07:51.016Z,35.83
2023-02-13T13:10:42.634Z,33.00
2023-02-13T13:13:28.475Z,33.95
2023-02-13T13:16:09.454Z,37.65
2023-02-13T13:18:53.394Z,34.05
2023-02-13T13:21:42.464Z,34.60
2023-02-13T13:24:31.433Z,37.78
2023-02-13T13:27:05.983Z,35.28
2023-02-13T13:29:46.573Z,33.97
2023-02-13T13:32:22.351Z,36.00
2023-02-13T13:34:55.772Z,34.05
2023-02-13T13:37:36.637Z,39.78
2023-02-13T13:40:32.712Z,35.50
2023-02-13T13:43:09.080Z,38.67
2023-02-13T13:45:50.575Z,38.63
2023-02-13T13:48:59.365Z,39.80
2023-02-13T13:51:33.824Z,37.97
2023-02-13T13:54:37.369Z,35.05
2023-02-13T13:57:16.848Z,37.15
2023-02-13T14:00:24.045Z,38.60
2023-02-13T14:03:28.568Z,33.67
2023-02-13T14:06:12.881Z,34.58
2023-02-13T14:09:10.633Z,38.85
2023-02-13T14:11:47.374Z,35.67
2023-02-13T14:14:55.891Z,35.72
2023-02-13T14:17:59.203Z,35.08
2023-02-13T14:20:39.511Z,36.67
2023-02-13T14:23:21.315Z,36.45
2023-02-13T14:25:55.196Z,34.88
2023-02-13T14:28:30.532Z,38.33
2023-02-13T14:31:15.382Z,40.25
2023-02-13T14:33:58.020Z,39.40
2023-02-13T14:36:34.329Z,43.83
2023-02-13T14:39:10.653Z,39.97
2023-02-13T14:41:49.688Z,37.88
2023-02-13T14:44:28.658Z,41.08
2023-02-13T14:47:03.487Z,36.25
2023-02-13T14:49:41.524Z,36.05
2023-02-13T14:52:22.273Z,37.47
2023-02-13T14:54:57.472Z,38.80
2023-02-13T14:57:33.745Z,37.95
2023-02-13T15:00:16.007Z,35.70
2023-02-13T15:02:56.971Z,38.58
2023-02-13T15:05:36.405Z,38.83
2023-02-13T15:08:16.058Z,38.05
2023-02-13T15:10:50.533Z,41.03
2023-02-13T15:13:29.132Z,35.50
2023-02-13T15:16:06.852Z,37.00
2023-02-13T15:18:44.674Z,38.22
2023-02-13T15:21:25.010Z,34.25
2023-02-13T15:24:00.135Z,37.53
2023-02-13T15:26:33.170Z,37.20
2023-02-13T15:29:29.437Z,40.38
2023-02-13T15:32:20.528Z,38.85
2023-02-13T15:34:52.647Z,36.13
2023-02-13T15:37:34.473Z,34.63
2023-02-13T15:40:28.298Z,37.58
2023-02-13T15:43:01.996Z,40.15
2023-02-13T15:45:39.462Z,41.30
2023-02-13T15:48:20.361Z,40.70
2023-02-13T15:50:52.487Z,38.38
2023-02-13T15:53:26.999Z,40.45
2023-02-13T15:56:02.043Z,38.42
2023-02-13T15:58:37.349Z,38.45
2023-02-13T16:01:11.602Z,42.00
2023-02-13T16:03:48.272Z,38.53
2023-02-13T16:06:32.568Z,36.67
2023-02-13T16:09:08.962Z,41.63
2023-02-13T16:11:43.753Z,38.10
2023-02-13T16:14:25.133Z,39.08
2023-02-13T16:17:02.360Z,37.60
2023-02-13T16:19:54.821Z,44.60
2023-02-13T16:22:37.125Z,42.80
2023-02-13T16:25:28.911Z,44.25
2023-02-13T16:28:04.547Z,42.40
2023-02-13T16:30:39.488Z,44.75
2023-02-13T16:33:26.443Z,44.50
2023-02-13T16:36:00.507Z,48.17
2023-02-13T16:38:37.124Z,41.95
2023-02-13T16:41:52.780Z,40.13
2023-02-13T16:44:31.337Z,41.35
2023-02-13T16:47:05.078Z,43.00
2023-02-13T16:49:39.080Z,43.38
2023-02-13T16:52:14.568Z,40.85
2023-02-13T16:54:57.892Z,40.03
2023-02-13T16:57:36.350Z,45.22
2023-02-13T17:00:19.072Z,46.13
2023-02-13T17:02:51.852Z,41.65
2023-02-13T17:05:26.572Z,45.90
2023-02-13T17:08:01.747Z,43.10
2023-02-13T17:10:36.449Z,49.13
2023-02-13T17:13:19.835Z,42.28
2023-02-13T17:15:53.096Z,45.95
2023-02-13T17:18:24.806Z,40.17
2023-02-13T17:20:58.275Z,42.33
2023-02-13T17:23:30.358Z,39.67
2023-02-13T17:26:02.234Z,44.50
2023-02-13T17:28:36.607Z,43.80
2023-02-13T17:31:14.814Z,40.95
2023-02-13T17:33:46.225Z,43.33
2023-02-13T17:36:18.554Z,44.85
2023-02-13T17:38:50.863Z,41.83
2023-02-13T17:41:26.533Z,42.22
2023-02-13T17:44:00.624Z,42.20
2023-02-13T17:46:32.358Z,45.40
2023-02-13T17:49:06.133Z,39.63
2023-02-13T17:51:46.008Z,46.65
2023-02-13T17:54:17.651Z,47.10
2023-02-13T17:56:48.935Z,48.50
2023-02-13T17:59:25.467Z,37.85
2023-02-13T18:01:58.898Z,43.38
2023-02-13T18:04:30.179Z,43.65
2023-02-13T18:07:03.459Z,45.17
2023-02-13T18:09:35.159Z,44.05
2023-02-13T18:12:07.744Z,43.97
2023-02-13T18:14:41.726Z,45.65
2023-02-13T18:17:16.631Z,44.35
2023-02-13T18:19:48.736Z,43.92
2023-02-13T18:22:21.234Z,48.00
2023-02-13T18:24:53.638Z,48.00
2023-02-13T18:27:27.417Z,48.38
2023-02-13T18:30:02.454Z,45.65
2023-02-13T18:32:34.896Z,51.45
2023-02-13T18:35:07.708Z,46.97
2023-02-13T18:37:40.910Z,44.92
2023-02-13T18:40:15.576Z,53.15
2023-02-13T18:42:50.299Z,48.42
2023-02-13T18:45:26.169Z,49.40
2023-02-13T18:47:58.779Z,47.60
2023-02-13T18:50:31.249Z,48.33
2023-02-13T18:53:03.933Z,50.03
2023-02-13T18:55:35.824Z,52.50
2023-02-13T18:58:08.527Z,48.83
2023-02-13T19:00:42.989Z,49.70
2023-02-13T19:03:15.151Z,49.03
2023-02-13T19:05:47.200Z,48.28
2023-02-13T19:08:19.484Z,49.30
2023-02-13T19:10:51.852Z,46.22
2023-02-13T19:13:24.419Z,48.90
2023-02-13T19:15:58.394Z,49.63
2023-02-13T19:18:33.201Z,47.40
2023-02-13T19:21:06.887Z,49.17
2023-02-13T19:23:41.795Z,52.10
2023-02-13T19:26:16.330Z,45.55
2023-02-13T19:28:51.189Z,50.45
2023-02-13T19:31:27.861Z,52.72
2023-02-13T19:34:01.014Z,50.42
2023-02-13T19:36:33.201Z,51.63
2023-02-13T19:39:11.047Z,51.53
2023-02-13T19:42:01.220Z,50.55
2023-02-13T19:44:43.526Z,50.25
2023-02-13T19:47:18.048Z,48.47
2023-02-13T19:49:52.424Z,50.72
2023-02-13T19:52:25.446Z,48.28
2023-02-13T19:55:02.993Z,50.35
2023-02-13T19:57:34.867Z,44.38
2023-02-13T20:00:09.792Z,51.03
2023-02-13T20:02:44.526Z,50.90
2023-02-13T20:05:17.125Z,48.50
2023-02-13T20:07:50.365Z,49.47
2023-02-13T20:10:25.745Z,51.15
2023-02-13T20:12:57.983Z,53.60
2023-02-13T20:15:32.923Z,53.42
2023-02-13T20:18:08.821Z,51.97
2023-02-13T20:20:43.347Z,51.70
2023-02-13T20:23:17.220Z,46.63
2023-02-13T20:25:49.683Z,53.50
2023-02-13T20:28:21.661Z,54.33
2023-02-13T20:30:54.406Z,51.70
2023-02-13T20:33:29.184Z,53.20
2023-02-13T20:36:01.386Z,55.50
2023-02-13T20:38:33.583Z,52.95
2023-02-13T20:41:11.306Z,54.55
2023-02-13T20:43:43.351Z,52.75
2023-02-13T20:46:16.423Z,53.67
2023-02-13T20:48:52.181Z,57.97
2023-02-13T20:51:24.443Z,59.80
2023-02-13T20:53:57.750Z,58.80
2023-02-13T20:56:31.193Z,62.95
2023-02-13T20:59:05.722Z,66.68
2023-02-13T21:01:44.424Z,61.70
2023-02-13T21:04:19.569Z,63.60
2023-02-13T21:06:51.850Z,62.25
2023-02-13T21:09:23.068Z,56.08
2023-02-13T21:11:55.087Z,57.75
2023-02-13T21:14:26.768Z,60.45
2023-02-13T21:16:58.621Z,59.95
2023-02-13T21:19:36.272Z,62.15
2023-02-13T21:22:14.719Z,63.17
2023-02-13T21:24:47.059Z,61.80
2023-02-13T21:27:18.599Z,60.55
2023-02-13T21:29:49.801Z,59.25
2023-02-13T21:32:22.057Z,56.92
2023-02-13T21:34:58.009Z,61.03
2023-02-13T21:37:29.850Z,56.60
2023-02-13T21:40:01.173Z,61.50
2023-02-13T21:42:32.844Z,57.53
2023-02-13T21:45:04.120Z,59.95
2023-02-13T21:47:38.357Z,56.28
2023-02-13T21:50:13.042Z,61.85
2023-02-13T21:52:45.080Z,57.25
2023-02-13T21:55:16.550Z,55.78
2023-02-13T21:57:48.538Z,59.65
2023-02-13T22:00:21.087Z,57.53
2023-02-13T22:02:52.986Z,55.90
2023-02-13T22:05:27.652Z,58.28
2023-02-13T22:08:14.810Z,60.38
2023-02-13T22:10:46.245Z,56.45
2023-02-13T22:13:20.755Z,59.00
2023-02-13T22:16:03.493Z,60.38
2023-02-13T22:18:39.756Z,60.65
2023-02-13T22:21:17.832Z,62.72
2023-02-13T22:23:52.914Z,59.60
2023-02-13T22:26:28.235Z,57.00
2023-02-13T22:29:03.971Z,56.78
2023-02-13T22:31:36.022Z,58.45
2023-02-13T22:34:10.136Z,59.30
2023-02-13T22:36:44.631Z,62.67
2023-02-13T22:39:16.645Z,56.60
2023-02-13T22:41:48.814Z,58.38
2023-02-13T22:44:21.284Z,56.90
2023-02-13T22:46:52.890Z,58.50
2023-02-13T22:49:26.064Z,61.45
2023-02-13T22:52:00.458Z,57.47
2023-02-13T22:54:32.692Z,60.58
2023-02-13T22:57:04.907Z,55.20
2023-02-13T22:59:39.836Z,62.92
2023-02-13T23:02:12.391Z,56.17
2023-02-13T23:04:44.403Z,53.95
2023-02-13T23:07:18.875Z,58.67
2023-02-13T23:09:51.250Z,60.55
2023-02-13T23:12:35.424Z,56.40
2023-02-13T23:15:09.073Z,59.53
2023-02-13T23:17:53.340Z,62.42
2023-02-13T23:20:25.996Z,55.83
2023-02-13T23:23:00.506Z,63.45
2023-02-13T23:25:32.192Z,59.10
2023-02-13T23:28:03.772Z,58.97
2023-02-13T23:30:36.225Z,62.92
2023-02-13T23:33:07.533Z,63.80
2023-02-13T23:35:39.513Z,59.42
2023-02-13T23:38:13.801Z,61.83
2023-02-13T23:40:45.655Z,58.38
2023-02-13T23:43:17.511Z,58.90
2023-02-13T23:45:50.009Z,59.53
2023-02-13T23:48:21.517Z,60.40
2023-02-13T23:50:54.250Z,58.58
2023-02-13T23:53:28.473Z,57.53
2023-02-13T23:56:00.304Z,60.70
2023-02-13T23:58:31.603Z,58.08
